• Join FlightAware (Why Join?)
  • Login
  • US Flag 
08:42PM EDT


 

Airport Tracker/Info


-or-


 

Live Flight TrackerFlight Track Log ✈ CSN359 ✈ 30-Jul-2013 ✈ ZGGG / CAN - VIDP / DEL

Flight Track Log - Related Links

Times and Time Zones

All times are in EDT time to prevent confusion due to time zone crossing. See the CSN359 flight status page for this flight to view local times or setup timezone preferences in your user account.

Time Position Orientation Groundspeed Altitude Reporting Facility
EDT Latitude Longitude Course Direction KTS MPH feet Rate Location/Type
07:31AM 23.4269 113.1748 287° West  Level Estimated
07:32AM 23.4613 113.0507 287° West  Level Estimated
07:33AM 23.4956 112.9266 287° West  Level Estimated
07:34AM 23.5298 112.8024 287° West  Level Estimated
07:35AM 23.5639 112.6781 287° West  Level Estimated
07:36AM 23.5979 112.5538 287° West  Level Estimated
07:37AM 23.6318 112.4294 287° West  Level Estimated
07:38AM 23.6657 112.3050 287° West  Level Estimated
07:39AM 23.6994 112.1804 286° West  Level Estimated
07:40AM 23.7330 112.0559 286° West  Level Estimated
07:41AM 23.7665 111.9312 286° West  Level Estimated
07:42AM 23.7999 111.8065 286° West  Level Estimated
07:43AM 23.8332 111.6817 286° West  Level Estimated
07:44AM 23.8664 111.5569 286° West  Level Estimated
07:45AM 23.8995 111.4320 286° West  Level Estimated
07:46AM 23.9325 111.3070 286° West  Level Estimated
07:47AM 23.9655 111.1820 286° West  Level Estimated
07:48AM 23.9982 111.0569 286° West  Level Estimated
07:49AM 24.0310 110.9317 286° West  Level Estimated
07:50AM 24.0636 110.8065 286° West  Level Estimated
07:51AM 24.0961 110.6812 286° West  Level Estimated
07:52AM 24.1285 110.5559 286° West  Level Estimated
07:53AM 24.1607 110.4305 286° West  Level Estimated
07:54AM 24.1929 110.3050 286° West  Level Estimated
07:55AM 24.2250 110.1795 286° West  Level Estimated
07:56AM 24.2570 110.0539 286° West  Level Estimated
07:57AM 24.2889 109.9282 286° West  Level Estimated
07:58AM 24.3207 109.8025 286° West  Level Estimated
07:59AM 24.3524 109.6767 285° West  Level Estimated
08:00AM 24.3839 109.5508 285° West  Level Estimated
08:01AM 24.4154 109.4249 285° West  Level Estimated
08:02AM 24.4468 109.2989 285° West  Level Estimated
08:03AM 24.4780 109.1729 285° West  Level Estimated
08:04AM 24.5092 109.0468 285° West  Level Estimated
08:05AM 24.5402 108.9206 285° West  Level Estimated
08:06AM 24.5711 108.7944 285° West  Level Estimated
08:07AM 24.6020 108.6681 285° West  Level Estimated
08:08AM 24.6327 108.5418 285° West  Level Estimated
08:09AM 24.6633 108.4154 285° West  Level Estimated
08:10AM 24.6939 108.2889 285° West  Level Estimated
08:11AM 24.7243 108.1623 285° West  Level Estimated
08:12AM 24.7546 108.0357 285° West  Level Estimated
08:13AM 24.7848 107.9091 285° West  Level Estimated
08:14AM 24.8149 107.7823 285° West  Level Estimated
08:15AM 24.8449 107.6556 285° West  Level Estimated
08:16AM 24.8748 107.5287 285° West  Level Estimated
08:17AM 24.9046 107.4018 285° West  Level Estimated
08:18AM 24.9342 107.2748 284° West  Level Estimated
08:19AM 24.9638 107.1478 284° West  Level Estimated
08:20AM 24.9932 107.0207 284° West  Level Estimated
08:21AM 25.0226 106.8936 284° West  Level Estimated
08:22AM 25.0518 106.7663 284° West  Level Estimated
08:23AM 25.0809 106.6391 284° West  Level Estimated
08:24AM 25.1100 106.5117 284° West  Level Estimated
08:25AM 25.1389 106.3844 284° West  Level Estimated
08:26AM 25.1677 106.2569 284° West  Level Estimated
08:27AM 25.1964 106.1294 284° West  Level Estimated
08:28AM 25.2250 106.0018 284° West  Level Estimated
08:29AM 25.2534 105.8742 284° West  Level Estimated
08:30AM 25.2818 105.7465 284° West  Level Estimated
08:31AM 25.3100 105.6188 284° West  Level Estimated
08:32AM 25.3382 105.4910 284° West  Level Estimated
08:33AM 25.3662 105.3631 284° West  Level Estimated
08:34AM 25.3941 105.2352 284° West  Level Estimated
08:35AM 25.4219 105.1072 284° West  Level Estimated
08:36AM 25.4496 104.9791 283° West  Level Estimated
08:37AM 25.4772 104.8510 283° West  Level Estimated
08:38AM 25.5047 104.7228 283° West  Level Estimated
08:39AM 25.5321 104.5946 283° West  Level Estimated
08:40AM 25.5593 104.4663 283° West  Level Estimated
08:41AM 25.5865 104.3380 283° West  Level Estimated
08:42AM 25.6135 104.2096 283° West  Level Estimated
08:43AM 25.6404 104.0811 283° West  Level Estimated
08:44AM 25.6672 103.9526 283° West  Level Estimated
08:45AM 25.6940 103.8240 283° West  Level Estimated
08:46AM 25.7205 103.6954 283° West  Level Estimated
08:47AM 25.7470 103.5667 283° West  Level Estimated
08:48AM 25.7734 103.4380 283° West  Level Estimated
08:49AM 25.7996 103.3092 283° West  Level Estimated
08:50AM 25.8257 103.1803 283° West  Level Estimated
08:51AM 25.8517 103.0514 283° West  Level Estimated
08:52AM 25.8776 102.9224 283° West  Level Estimated
08:53AM 25.9034 102.7934 283° West  Level Estimated
08:54AM 25.9291 102.6643 282° West  Level Estimated
08:55AM 25.9547 102.5351 282° West  Level Estimated
08:56AM 25.9801 102.4060 282° West  Level Estimated
08:57AM 26.0054 102.2767 282° West  Level Estimated
08:58AM 26.0307 102.1474 282° West  Level Estimated
08:59AM 26.0558 102.0180 282° West  Level Estimated
09:00AM 26.0808 101.8886 282° West  Level Estimated
09:01AM 26.1056 101.7591 282° West  Level Estimated
09:02AM 26.1304 101.6296 282° West  Level Estimated
09:03AM 26.1550 101.5000 282° West  Level Estimated
09:04AM 26.1795 101.3704 282° West  Level Estimated
09:05AM 26.2040 101.2407 282° West  Level Estimated
09:06AM 26.2282 101.1109 282° West  Level Estimated
09:07AM 26.2524 100.9811 282° West  Level Estimated
09:08AM 26.2765 100.8513 282° West  Level Estimated
09:09AM 26.3004 100.7214 282° West  Level Estimated
09:10AM 26.3242 100.5914 282° West  Level Estimated
09:11AM 26.3479 100.4614 282° West  Level Estimated
09:12AM 26.3715 100.3313 281° West  Level Estimated
09:13AM 26.3950 100.2012 281° West  Level Estimated
09:14AM 26.4184 100.0710 281° West  Level Estimated
09:15AM 26.4416 99.9408 281° West  Level Estimated
09:16AM 26.4647 99.8105 281° West  Level Estimated
09:17AM 26.4877 99.6802 281° West  Level Estimated
09:18AM 26.5106 99.5498 281° West  Level Estimated
09:19AM 26.5333 99.4193 281° West  Level Estimated
09:20AM 26.5560 99.2888 281° West  Level Estimated
09:21AM 26.5785 99.1583 281° West  Level Estimated
09:22AM 26.6009 99.0277 281° West  Level Estimated
09:23AM 26.6232 98.8971 281° West  Level Estimated
09:24AM 26.6454 98.7664 281° West  Level Estimated
09:25AM 26.6674 98.6356 281° West  Level Estimated
09:26AM 26.6893 98.5049 281° West  Level Estimated
09:27AM 26.7111 98.3740 281° West  Level Estimated
09:28AM 26.7328 98.2431 281° West  Level Estimated
09:29AM 26.7544 98.1122 280° West  Level Estimated
09:30AM 26.7759 97.9812 280° West  Level Estimated
09:31AM 26.7972 97.8502 280° West  Level Estimated
09:32AM 26.8184 97.7191 280° West  Level Estimated
09:33AM 26.8395 97.5879 280° West  Level Estimated
09:34AM 26.8604 97.4567 280° West  Level Estimated
09:35AM 26.8813 97.3255 280° West  Level Estimated
09:36AM 26.9020 97.1942 280° West  Level Estimated
09:37AM 26.9226 97.0629 280° West  Level Estimated
09:38AM 26.9431 96.9315 280° West  Level Estimated
09:39AM 26.9634 96.8001 280° West  Level Estimated
09:40AM 26.9837 96.6686 280° West  Level Estimated
09:41AM 27.0038 96.5371 280° West  Level Estimated
09:42AM 27.0238 96.4055 280° West  Level Estimated
09:43AM 27.0436 96.2739 280° West  Level Estimated
09:44AM 27.0634 96.1422 280° West  Level Estimated
09:45AM 27.0830 96.0105 280° West  Level Estimated
09:46AM 27.1025 95.8787 279° West  Level Estimated
09:47AM 27.1219 95.7469 279° West  Level Estimated
09:48AM 27.1411 95.6151 279° West  Level Estimated
09:49AM 27.1603 95.4832 279° West  Level Estimated
09:50AM 27.1793 95.3513 279° West  Level Estimated
09:51AM 27.1982 95.2193 279° West  Level Estimated
09:52AM 27.2169 95.0872 279° West  Level Estimated
09:53AM 27.2356 94.9552 279° West  Level Estimated
09:54AM 27.2541 94.8231 279° West  Level Estimated
09:55AM 27.2725 94.6909 279° West  Level Estimated
09:56AM 27.2907 94.5587 279° West  Level Estimated
09:57AM 27.3089 94.4265 279° West  Level Estimated
09:58AM 27.3269 94.2942 279° West  Level Estimated
09:59AM 27.3448 94.1618 279° West  Level Estimated
10:00AM 27.3625 94.0294 279° West  Level Estimated
10:01AM 27.3802 93.8970 279° West  Level Estimated
10:02AM 27.3977 93.7646 279° West  Level Estimated
10:03AM 27.4151 93.6321 278° West  Level Estimated
10:04AM 27.4324 93.4995 278° West  Level Estimated
10:05AM 27.4495 93.3670 278° West  Level Estimated
10:06AM 27.4665 93.2343 278° West  Level Estimated
10:07AM 27.4834 93.1016 278° West  Level Estimated
10:08AM 27.5002 92.9689 278° West  Level Estimated
10:09AM 27.5168 92.8362 278° West  Level Estimated
10:10AM 27.5333 92.7034 278° West  Level Estimated
10:11AM 27.5497 92.5706 278° West  Level Estimated
10:12AM 27.5660 92.4377 278° West  Level Estimated
10:13AM 27.5821 92.3048 278° West  Level Estimated
10:14AM 27.5981 92.1718 278° West  Level Estimated
10:15AM 27.6140 92.0389 278° West  Level Estimated
10:16AM 27.6297 91.9058 278° West  Level Estimated
10:17AM 27.6454 91.7728 278° West  Level Estimated
10:18AM 27.6609 91.6397 278° West  Level Estimated
10:19AM 27.6762 91.5065 277° West  Level Estimated
10:20AM 27.6915 91.3734 277° West  Level Estimated
10:21AM 27.7066 91.2402 277° West  Level Estimated
10:22AM 27.7216 91.1069 277° West  Level Estimated
10:23AM 27.7364 90.9736 277° West  Level Estimated
10:24AM 27.7512 90.8403 277° West  Level Estimated
10:25AM 27.7658 90.7069 277° West  Level Estimated
10:26AM 27.7803 90.5736 277° West  Level Estimated
10:27AM 27.7946 90.4401 277° West  Level Estimated
10:28AM 27.8088 90.3067 277° West  Level Estimated
10:29AM 27.8229 90.1732 277° West  Level Estimated
10:30AM 27.8369 90.0396 277° West  Level Estimated
10:31AM 27.8507 89.9061 277° West  Level Estimated
10:32AM 27.8644 89.7725 277° West  Level Estimated
10:33AM 27.8780 89.6388 277° West  Level Estimated
10:34AM 27.8915 89.5052 277° West  Level Estimated
10:35AM 27.9048 89.3715 276° West  Level Estimated
10:36AM 27.9180 89.2377 276° West  Level Estimated
10:37AM 27.9310 89.1040 276° West  Level Estimated
10:38AM 27.9440 88.9702 276° West  Level Estimated
10:39AM 27.9568 88.8363 276° West  Level Estimated
10:40AM 27.9694 88.7025 276° West  Level Estimated
10:41AM 27.9820 88.5686 276° West  Level Estimated
10:42AM 27.9944 88.4347 276° West  Level Estimated
10:43AM 28.0067 88.3007 276° West  Level Estimated
10:44AM 28.0189 88.1667 276° West  Level Estimated
10:45AM 28.0309 88.0327 276° West  Level Estimated
10:46AM 28.0428 87.8987 276° West  Level Estimated
10:47AM 28.0546 87.7646 276° West  Level Estimated
10:48AM 28.0662 87.6305 276° West  Level Estimated
10:49AM 28.0777 87.4964 276° West  Level Estimated
10:50AM 28.0891 87.3622 276° West  Level Estimated
10:51AM 28.1003 87.2281 275° West  Level Estimated
10:52AM 28.1114 87.0938 275° West  Level Estimated
10:53AM 28.1224 86.9596 275° West  Level Estimated
10:54AM 28.1332 86.8253 275° West  Level Estimated
10:55AM 28.1439 86.6910 275° West  Level Estimated
10:56AM 28.1545 86.5567 275° West  Level Estimated
10:57AM 28.1650 86.4223 275° West  Level Estimated
10:58AM 28.1753 86.2880 275° West  Level Estimated
10:59AM 28.1855 86.1536 275° West  Level Estimated
11:00AM 28.1956 86.0191 275° West  Level Estimated
11:01AM 28.2055 85.8847 275° West  Level Estimated
11:02AM 28.2153 85.7502 275° West  Level Estimated
11:03AM 28.2250 85.6157 275° West  Level Estimated
11:04AM 28.2345 85.4812 275° West  Level Estimated
11:05AM 28.2439 85.3466 275° West  Level Estimated
11:06AM 28.2532 85.2121 275° West  Level Estimated
11:07AM 28.2624 85.0775 274° West  Level Estimated
11:08AM 28.2714 84.9428 274° West  Level Estimated
11:09AM 28.2803 84.8082 274° West  Level Estimated
11:10AM 28.2890 84.6735 274° West  Level Estimated
11:11AM 28.2976 84.5388 274° West  Level Estimated
11:12AM 28.3061 84.4041 274° West  Level Estimated
11:13AM 28.3145 84.2694 274° West  Level Estimated
11:14AM 28.3227 84.1347 274° West  Level Estimated
11:15AM 28.3308 83.9999 274° West  Level Estimated
11:16AM 28.3387 83.8651 274° West  Level Estimated
11:17AM 28.3465 83.7303 274° West  Level Estimated
11:18AM 28.3542 83.5955 274° West  Level Estimated
11:19AM 28.3618 83.4606 274° West  Level Estimated
11:20AM 28.3692 83.3257 274° West  Level Estimated
11:21AM 28.3765 83.1908 274° West  Level Estimated
11:22AM 28.3837 83.0559 273° West  Level Estimated
11:23AM 28.3907 82.9210 273° West  Level Estimated
11:24AM 28.3976 82.7861 273° West  Level Estimated
11:25AM 28.4043 82.6511 273° West  Level Estimated
11:26AM 28.4110 82.5161 273° West  Level Estimated
11:27AM 28.4175 82.3811 273° West  Level Estimated
11:28AM 28.4238 82.2461 273° West  Level Estimated
11:29AM 28.4300 82.1111 273° West  Level Estimated
11:30AM 28.4361 81.9761 273° West  Level Estimated
11:31AM 28.4421 81.8410 273° West  Level Estimated
11:32AM 28.4479 81.7059 273° West  Level Estimated
11:33AM 28.4536 81.5708 273° West  Level Estimated
11:34AM 28.4592 81.4357 273° West  Level Estimated
11:35AM 28.4646 81.3006 273° West  Level Estimated
11:36AM 28.4699 81.1655 273° West  Level Estimated
11:37AM 28.4751 81.0303 273° West  Level Estimated
11:38AM 28.4801 80.8952 272° West  Level Estimated
11:39AM 28.4850 80.7600 272° West  Level Estimated
11:40AM 28.4897 80.6248 272° West  Level Estimated
11:41AM 28.4944 80.4896 272° West  Level Estimated
11:42AM 28.4989 80.3544 272° West  Level Estimated
11:43AM 28.5032 80.2192 272° West  Level Estimated
11:44AM 28.5074 80.0840 272° West  Level Estimated
11:45AM 28.5115 79.9487 272° West  Level Estimated
11:46AM 28.5155 79.8135 272° West  Level Estimated
11:47AM 28.5193 79.6782 272° West  Level Estimated
11:48AM 28.5230 79.5430 272° West  Level Estimated
11:49AM 28.5266 79.4077 272° West  Level Estimated
11:50AM 28.5300 79.2724 272° West  Level Estimated
11:51AM 28.5333 79.1371 272° West  Level Estimated
11:52AM 28.5364 79.0018 272° West  Level Estimated
11:53AM 28.5394 78.8665 271° West  Level Estimated
11:54AM 28.5423 78.7312 271° West  Level Estimated
11:55AM 28.5451 78.5958 271° West  Level Estimated
11:56AM 28.5477 78.4605 271° West  Level Estimated
11:57AM 28.5502 78.3252 271° West  Level Estimated
11:58AM 28.5525 78.1898 271° West  Level Estimated
11:59AM 28.5547 78.0545 271° West  Level Estimated
12:00PM 28.5568 77.9191 271° West  Level Estimated
12:01PM 28.5588 77.7838 271° West  Level Estimated
12:02PM 28.5606 77.6484 271° West  Level Estimated
12:03PM 28.5623 77.5130 271° West  Level Estimated
12:04PM 28.5638 77.3776 271° West  Level Estimated
12:05PM 28.5652 77.2422 271° West  Level Estimated
12:06PM 28.5665 77.1069 271° West  Level Estimated
12:07PM 28.5665 77.1031 271° West  Level Estimated
12:08PM 28.5665 77.1031 270° West  Level Estimated
12:09PM 28.5665 77.1031 270° West  Level Estimated
12:10PM 28.5665 77.1031 270° West  Level Estimated
12:11PM 28.5665 77.1031 270° West  Level Estimated
12:12PM 28.5665 77.1031 270° West  Level Estimated
12:13PM 28.5665 77.1031 270° West  Level Estimated
12:14PM 28.5665 77.1031 270° West  Level Estimated
12:15PM 28.5665 77.1031 270° West  Level Estimated
12:16PM 28.5665 77.1031 270° West  Level Estimated
12:17PM 28.5665 77.1031 270° West  Level Estimated
12:18PM 28.5665 77.1031 270° West  Level Estimated
12:19PM 28.5665 77.1031 270° West  Level Estimated
12:20PM 28.5665 77.1031 270° West  Level Estimated
12:21PM 28.5665 77.1031 270° West  Level Estimated
12:22PM 28.5665 77.1031 270° West  Level Estimated